createdAt,value
2023-02-09T00:00:26.540Z,102105.72
2023-02-09T00:05:27.771Z,102105.94
2023-02-09T00:10:28.929Z,102094.25
2023-02-09T00:15:30.140Z,102101.81
2023-02-09T00:20:31.299Z,102090.69
2023-02-09T00:25:32.513Z,102094.88
2023-02-09T00:30:33.704Z,102085.72
2023-02-09T00:35:34.911Z,102082.16
2023-02-09T00:40:36.153Z,102084.56
2023-02-09T00:45:37.427Z,102090.34
2023-02-09T00:50:38.682Z,102086.81
2023-02-09T00:55:39.918Z,102078.31
2023-02-09T01:00:41.114Z,102086.84
2023-02-09T01:05:42.377Z,102088.16
2023-02-09T01:10:43.836Z,102084.75
2023-02-09T01:15:45.256Z,102081.72
2023-02-09T01:20:46.808Z,102080.94
2023-02-09T01:25:48.105Z,102086.59
2023-02-09T01:30:49.544Z,102080.13
2023-02-09T01:35:50.937Z,102069.66
2023-02-09T01:40:53.905Z,102076.56
2023-02-09T01:45:55.271Z,102075.97
2023-02-09T01:50:56.554Z,102071.16
2023-02-09T01:55:57.799Z,102074.03
2023-02-09T02:01:00.141Z,102068.75
2023-02-09T02:06:01.608Z,102061.19
2023-02-09T02:11:02.817Z,102053.81
2023-02-09T02:16:04.369Z,102053.81
2023-02-09T02:21:05.677Z,102058.50
2023-02-09T02:26:07.223Z,102045.91
2023-02-09T02:31:08.608Z,102043.78
2023-02-09T02:36:09.838Z,102048.94
2023-02-09T02:41:11.018Z,102046.19
2023-02-09T02:46:12.301Z,102045.75
2023-02-09T02:51:13.506Z,102048.03
2023-02-09T02:56:14.684Z,102050.47
2023-02-09T03:01:15.943Z,102054.16
2023-02-09T03:06:17.242Z,102049.19
2023-02-09T03:11:18.550Z,102055.97
2023-02-09T03:16:19.810Z,102051.28
2023-02-09T03:21:21.067Z,102047.16
2023-02-09T03:26:22.265Z,102045.06
2023-02-09T03:31:23.648Z,102049.75
2023-02-09T03:36:24.961Z,101999.34
2023-02-09T03:41:26.170Z,102053.81
2023-02-09T03:46:27.483Z,102056.06
2023-02-09T03:51:28.735Z,102053.31
2023-02-09T03:56:29.950Z,102043.84
2023-02-09T04:01:33.273Z,102043.38
2023-02-09T04:06:34.892Z,102036.28
2023-02-09T04:11:36.140Z,102032.09
2023-02-09T04:16:37.438Z,102028.56
2023-02-09T04:21:38.654Z,102027.31
2023-02-09T04:26:39.847Z,102025.69
2023-02-09T04:31:41.153Z,102029.22
2023-02-09T04:36:42.425Z,102009.94
2023-02-09T04:41:43.647Z,102008.03
2023-02-09T04:46:45.737Z,102013.50
2023-02-09T04:51:47.006Z,102006.91
2023-02-09T04:57:08.173Z,101996.16
2023-02-09T05:02:09.384Z,102002.41
2023-02-09T05:07:10.630Z,101999.69
2023-02-09T05:12:11.843Z,102003.09
2023-02-09T05:17:13.106Z,102001.78
2023-02-09T05:22:14.308Z,101993.28
2023-02-09T05:27:15.523Z,101986.81
2023-02-09T05:32:16.732Z,101991.03
2023-02-09T05:37:17.975Z,101982.53
2023-02-09T05:42:19.227Z,101991.03
2023-02-09T05:47:20.523Z,101990.09
2023-02-09T05:52:21.787Z,101991.66
2023-02-09T05:57:22.997Z,101999.38
2023-02-09T06:02:24.235Z,102006.47
2023-02-09T06:07:25.523Z,102000.38
2023-02-09T06:12:26.745Z,102011.63
2023-02-09T06:17:27.990Z,102006.16
2023-02-09T06:22:29.996Z,102002.00
2023-02-09T06:27:31.230Z,101997.00
2023-02-09T06:32:32.458Z,101981.06
2023-02-09T06:37:33.691Z,101994.75
2023-02-09T06:42:44.148Z,101993.78
2023-02-09T06:47:45.490Z,101993.13
2023-02-09T06:52:46.655Z,101982.06
2023-02-09T06:57:47.827Z,101979.66
2023-02-09T07:02:49.089Z,101993.94
2023-02-09T07:07:50.420Z,102002.63
2023-02-09T07:12:51.678Z,102007.63
2023-02-09T07:17:52.918Z,102017.91
2023-02-09T07:22:54.146Z,102028.97
2023-02-09T07:27:55.432Z,102024.16
2023-02-09T07:32:56.692Z,102037.16
2023-02-09T07:37:57.966Z,102043.56
2023-02-09T07:42:59.311Z,102044.03
2023-02-09T07:48:00.498Z,102047.38
2023-02-09T07:53:01.748Z,102041.56
2023-02-09T07:58:02.934Z,102028.13
2023-02-09T08:03:04.149Z,102033.56
2023-02-09T08:08:05.347Z,102024.97
2023-02-09T08:13:06.781Z,102023.75
2023-02-09T08:18:07.985Z,102018.84
2023-02-09T08:23:09.260Z,102034.91
2023-02-09T08:28:10.476Z,102040.63
2023-02-09T08:33:11.715Z,102053.13
2023-02-09T08:38:13.033Z,102041.44
2023-02-09T08:43:14.302Z,101975.28
2023-02-09T08:48:15.507Z,102036.63
2023-02-09T08:53:16.702Z,102041.81
2023-02-09T08:58:17.866Z,102057.94
2023-02-09T09:03:19.081Z,102069.56
2023-02-09T09:08:20.326Z,102080.13
2023-02-09T09:13:21.509Z,102082.38
2023-02-09T09:18:22.962Z,102072.00
2023-02-09T09:23:24.198Z,102064.72
2023-02-09T09:28:25.451Z,102075.84
2023-02-09T09:33:26.674Z,102090.88
2023-02-09T09:38:27.830Z,102087.94
2023-02-09T09:43:29.037Z,102088.13
2023-02-09T09:48:30.273Z,102092.78
2023-02-09T09:53:33.116Z,102105.03
2023-02-09T09:58:34.364Z,102084.69
2023-02-09T10:03:35.598Z,102104.66
2023-02-09T10:08:36.815Z,102106.09
2023-02-09T10:13:38.045Z,102115.44
2023-02-09T10:18:40.554Z,102111.84
2023-02-09T10:23:41.812Z,102095.47
2023-02-09T10:28:43.032Z,102093.66
2023-02-09T10:33:44.232Z,102092.91
2023-02-09T10:38:45.419Z,102093.63
2023-02-09T10:43:46.572Z,102087.78
2023-02-09T10:48:47.934Z,102089.91
2023-02-09T10:53:49.106Z,102085.50
2023-02-09T10:58:50.505Z,102064.22
2023-02-09T11:03:51.758Z,102045.72
2023-02-09T11:08:53.012Z,102036.81
2023-02-09T11:13:54.272Z,102031.47
2023-02-09T11:18:56.805Z,102047.06
2023-02-09T11:23:58.017Z,102034.28
2023-02-09T11:28:59.323Z,102034.13
2023-02-09T11:34:00.511Z,102026.47
2023-02-09T11:39:01.788Z,102024.47
2023-02-09T11:44:02.948Z,102034.41
2023-02-09T11:49:04.108Z,102029.81
2023-02-09T11:54:05.423Z,102019.81
2023-02-09T11:59:06.645Z,102001.75
2023-02-09T12:04:07.832Z,102003.53
2023-02-09T12:09:09.037Z,101994.97
2023-02-09T12:14:10.186Z,101992.31
2023-02-09T12:19:11.360Z,101989.91
2023-02-09T12:24:12.523Z,101975.19
2023-02-09T12:29:13.710Z,101984.38
2023-02-09T12:34:14.946Z,101992.56
2023-02-09T12:39:16.187Z,101988.84
2023-02-09T12:44:18.364Z,101993.63
2023-02-09T12:49:20.780Z,101990.53
2023-02-09T12:54:22.103Z,101999.63
2023-02-09T12:59:23.294Z,102000.09
2023-02-09T13:04:24.489Z,102002.03
2023-02-09T13:09:25.655Z,102004.50
2023-02-09T13:14:26.920Z,101984.44
2023-02-09T13:19:36.427Z,101991.81
2023-02-09T13:24:47.151Z,101988.81
2023-02-09T13:29:48.394Z,101979.97
2023-02-09T13:34:49.593Z,101981.38
2023-02-09T13:39:50.822Z,101984.81
2023-02-09T13:44:52.125Z,102000.75
2023-02-09T13:49:53.320Z,101990.19
2023-02-09T13:54:54.741Z,101984.16
2023-02-09T13:59:55.977Z,101978.16
2023-02-09T14:04:57.228Z,101975.94
2023-02-09T14:09:58.456Z,101966.22
2023-02-09T14:15:18.135Z,101967.75
2023-02-09T14:20:19.378Z,101964.22
2023-02-09T14:25:20.573Z,101985.50
2023-02-09T14:30:21.808Z,101985.56
2023-02-09T14:35:23.202Z,101990.25
2023-02-09T14:40:24.508Z,101998.03
2023-02-09T14:45:25.761Z,101986.63
2023-02-09T14:50:26.972Z,101993.81
2023-02-09T14:55:28.204Z,101986.66
2023-02-09T15:00:29.505Z,101995.94
2023-02-09T15:05:30.751Z,101990.44
2023-02-09T15:10:31.941Z,101980.84
2023-02-09T15:15:37.474Z,101984.97
2023-02-09T15:20:38.766Z,101980.25
2023-02-09T15:25:39.972Z,101995.16
2023-02-09T15:30:41.310Z,101992.47
2023-02-09T15:35:42.495Z,102013.59
2023-02-09T15:41:02.284Z,102015.91
2023-02-09T15:46:03.462Z,102015.84
2023-02-09T15:51:04.743Z,102017.75
2023-02-09T15:56:06.106Z,102019.03
2023-02-09T16:01:07.634Z,102023.53
2023-02-09T16:06:08.831Z,102020.63
2023-02-09T16:11:10.021Z,102031.88
2023-02-09T16:16:17.256Z,102038.31
2023-02-09T16:21:18.915Z,102040.97
2023-02-09T16:26:20.942Z,102049.03
2023-02-09T16:31:22.211Z,102065.47
2023-02-09T16:36:23.784Z,102067.91
2023-02-09T16:41:43.613Z,102075.50
2023-02-09T16:46:44.894Z,102090.91
2023-02-09T16:51:49.030Z,102104.66
2023-02-09T16:56:54.454Z,102108.66
2023-02-09T17:02:00.018Z,102104.00
2023-02-09T17:07:01.298Z,102107.53
2023-02-09T17:12:02.544Z,102116.47
2023-02-09T17:17:03.736Z,102128.41
2023-02-09T17:22:04.941Z,102127.50
2023-02-09T17:27:06.128Z,102130.63
2023-02-09T17:32:07.634Z,102157.00
2023-02-09T17:37:08.887Z,102153.78
2023-02-09T17:42:10.093Z,102176.84
2023-02-09T17:47:14.936Z,102168.34
2023-02-09T17:52:20.193Z,102175.91
2023-02-09T17:57:23.196Z,102180.38
2023-02-09T18:02:24.851Z,102185.13
2023-02-09T18:07:26.245Z,102185.88
2023-02-09T18:12:28.107Z,102190.09
2023-02-09T18:17:30.245Z,102195.13
2023-02-09T18:22:31.677Z,102196.78
2023-02-09T18:27:33.484Z,102203.16
2023-02-09T18:32:35.204Z,102207.97
2023-02-09T18:37:39.272Z,102207.00
2023-02-09T18:42:47.164Z,102209.78
2023-02-09T18:47:48.774Z,102215.72
2023-02-09T18:52:51.060Z,102201.41
2023-02-09T18:57:54.741Z,102206.03
2023-02-09T19:02:59.129Z,102212.31
2023-02-09T19:08:00.647Z,102216.78
2023-02-09T19:13:07.789Z,102224.41
2023-02-09T19:18:09.448Z,102225.91
2023-02-09T19:23:11.484Z,102233.66
2023-02-09T19:28:12.979Z,102236.63
2023-02-09T19:33:17.139Z,102241.88
2023-02-09T19:38:18.867Z,102242.78
2023-02-09T19:43:21.265Z,102253.28
2023-02-09T19:48:26.234Z,102256.34
2023-02-09T19:53:33.800Z,102258.81
2023-02-09T19:58:35.320Z,102256.47
2023-02-09T20:03:39.630Z,102251.72
2023-02-09T20:08:44.519Z,102256.94
2023-02-09T20:13:46.703Z,102264.59
2023-02-09T20:18:48.953Z,102262.00
2023-02-09T20:23:50.387Z,102265.44
2023-02-09T20:28:55.867Z,102272.06
2023-02-09T20:34:00.335Z,102277.25
2023-02-09T20:39:02.093Z,102282.47
2023-02-09T20:44:22.744Z,102288.09
2023-02-09T20:49:24.295Z,102298.09
2023-02-09T20:54:25.916Z,102295.31
2023-02-09T20:59:27.333Z,102301.84
2023-02-09T21:04:32.548Z,102301.66
2023-02-09T21:09:34.559Z,102305.06
2023-02-09T21:14:42.051Z,102312.03
2023-02-09T21:19:44.369Z,102312.78
2023-02-09T21:24:45.584Z,102317.94
2023-02-09T21:29:46.892Z,102318.50
2023-02-09T21:34:48.105Z,102317.06
2023-02-09T21:39:49.333Z,102304.47
2023-02-09T21:44:50.557Z,102307.06
2023-02-09T21:49:51.972Z,102300.44
2023-02-09T21:54:53.803Z,102312.53
2023-02-09T21:59:55.280Z,102303.88
2023-02-09T22:04:56.482Z,102302.66
2023-02-09T22:09:57.711Z,102293.66
2023-02-09T22:14:58.908Z,102297.22
2023-02-09T22:20:00.147Z,102292.78
2023-02-09T22:25:01.344Z,102289.69
2023-02-09T22:30:02.626Z,102291.06
2023-02-09T22:35:03.866Z,102296.25
2023-02-09T22:40:05.105Z,102296.25
2023-02-09T22:45:06.260Z,102301.44
2023-02-09T22:50:07.492Z,102314.03
2023-02-09T22:55:08.666Z,102316.97
2023-02-09T23:00:09.882Z,102325.34
2023-02-09T23:05:11.109Z,102323.38
2023-02-09T23:10:12.388Z,102329.00
2023-02-09T23:15:13.617Z,102328.56
2023-02-09T23:20:14.896Z,102329.34
2023-02-09T23:25:16.079Z,102324.25
2023-02-09T23:30:17.376Z,102326.84
2023-02-09T23:35:18.668Z,102335.06
2023-02-09T23:40:19.894Z,102334.69
2023-02-09T23:45:21.102Z,102345.03
2023-02-09T23:50:22.338Z,102345.69
2023-02-09T23:55:23.552Z,102347.09
